Pemaquid, Maine
Current Conditions -  °F | °C
As of 5:53 PM on Tuesday 25 Nov 2014 (Local Time) from KIWI Reporting Station
Clear Clear  
Wind Chill: 52°   Ceiling: Unl
Heat Index: 52°   Visibility: 10mi
Dew Point: 27°   Wind: 5mph
Humidity: 38%   Direction: 240°WSW
Pressure: 29.91"   Gusts: NA
Location:  43.91°N, 69.52°W
Report Text: KIWI 252253Z AUTO 24004KT 10SM CLR 11/M03 A2991 RMK AO2 SLP129 T01111028
Loading
Personal Weather Stations






























Interactive Weather Map New forecast layout! Learn more

10-Day Weather Forecast

Advertisements
Track Severe Weather on mobile